Dati Storici

Data ora Umidita' aria (%) Temperatura aria (°C) Rad globale (W/m²) Gonioanemometro (°) Tacoanemometro (m/s) Pioggia (mm)
18-10-2012 08:00 94.4 % 11.394 35.634 323.967 1.04 0
18-10-2012 07:50 94.5 % 11.255 23.082 237.379 0.906 0
18-10-2012 07:40 94.7 % 11.287 14.232 341.022 0.999 0
18-10-2012 07:30 94.6 % 11.131 6.012 324.768 0.622 0
18-10-2012 07:20 94.8 % 11.166 5.5 2.689 1.025 0
18-10-2012 07:10 94.5 % 11 2.181 308.172 0.619 0
18-10-2012 07:00 94.5 % 11.041 2.04 221.427 0.405 0
18-10-2012 06:50 94.2 % 10.929 1.797 282.015 0.451 0
18-10-2012 06:40 94.2 % 11.067 2.104 237.181 0.147 0
18-10-2012 06:30 94.2 % 11.126 2.143 264.658 0.343 0
18-10-2012 06:20 93.8 % 11.024 1.925 247.596 0.395 0
18-10-2012 06:10 94 % 11.205 2.438 1.246 -0.001 0
18-10-2012 06:00 93.9 % 11.204 2.156 321.648 0.249 0
18-10-2012 05:50 93.8 % 11.242 2.079 1.157 -0.007 0
18-10-2012 05:40 93.7 % 11.253 2.181 261.623 0.137 0
18-10-2012 05:30 93.4 % 11.207 2.066 283.516 0.266 0
18-10-2012 05:20 92.9 % 11.115 2.056 289.764 0.218 0
18-10-2012 05:10 92 % 10.816 1.851 254.827 -0.01 0
18-10-2012 05:00 92 % 11.017 2.197 145.589 -0.01 0
18-10-2012 04:50 92.2 % 11.322 1.761 253.449 -0.008 0

I dati sono presentati in modo automatico a scopo informativo. In seguito a verifica i dati possono subire modifiche o essere invalidati e non riportati negli archivi definitivi.